sensor_id;sensor_type;location;lat;lon;timestamp;P1;durP1;ratioP1;P2;durP2;ratioP2
64938;SDS011;51453;47.738;7.420;2023-03-14T00:00:09;1.65;;;1.00;;
64938;SDS011;51453;47.738;7.420;2023-03-14T00:02:38;2.92;;;1.10;;
64938;SDS011;51453;47.738;7.420;2023-03-14T00:05:04;3.42;;;1.05;;
64938;SDS011;51453;47.738;7.420;2023-03-14T00:07:38;2.35;;;1.00;;
64938;SDS011;51453;47.738;7.420;2023-03-14T00:10:09;1.73;;;1.33;;
64938;SDS011;51453;47.738;7.420;2023-03-14T00:12:37;1.77;;;0.95;;
64938;SDS011;51453;47.738;7.420;2023-03-14T00:15:03;2.92;;;1.33;;
64938;SDS011;51453;47.738;7.420;2023-03-14T00:17:29;1.20;;;0.70;;
64938;SDS011;51453;47.738;7.420;2023-03-14T00:19:56;1.63;;;0.80;;
64938;SDS011;51453;47.738;7.420;2023-03-14T00:22:21;1.50;;;0.60;;
64938;SDS011;51453;47.738;7.420;2023-03-14T00:24:47;1.45;;;0.70;;
64938;SDS011;51453;47.738;7.420;2023-03-14T00:27:13;0.93;;;0.60;;
64938;SDS011;51453;47.738;7.420;2023-03-14T00:29:39;2.75;;;0.50;;
64938;SDS011;51453;47.738;7.420;2023-03-14T00:32:04;1.80;;;0.50;;
64938;SDS011;51453;47.738;7.420;2023-03-14T00:34:31;2.90;;;1.35;;
64938;SDS011;51453;47.738;7.420;2023-03-14T00:36:58;2.55;;;0.60;;
64938;SDS011;51453;47.738;7.420;2023-03-14T00:39:23;1.55;;;0.40;;
64938;SDS011;51453;47.738;7.420;2023-03-14T00:41:49;0.95;;;0.50;;
64938;SDS011;51453;47.738;7.420;2023-03-14T00:44:14;1.33;;;0.40;;
64938;SDS011;51453;47.738;7.420;2023-03-14T00:46:40;2.45;;;0.73;;
64938;SDS011;51453;47.738;7.420;2023-03-14T00:49:05;0.93;;;0.60;;
64938;SDS011;51453;47.738;7.420;2023-03-14T00:51:32;1.67;;;0.63;;
64938;SDS011;51453;47.738;7.420;2023-03-14T00:53:58;3.33;;;0.50;;
64938;SDS011;51453;47.738;7.420;2023-03-14T00:56:25;3.67;;;0.57;;
64938;SDS011;51453;47.738;7.420;2023-03-14T00:58:54;4.55;;;0.60;;
64938;SDS011;51453;47.738;7.420;2023-03-14T01:01:20;4.07;;;0.80;;
64938;SDS011;51453;47.738;7.420;2023-03-14T01:03:46;3.28;;;0.63;;
64938;SDS011;51453;47.738;7.420;2023-03-14T01:06:16;2.83;;;0.50;;
64938;SDS011;51453;47.738;7.420;2023-03-14T01:08:43;3.08;;;0.50;;
64938;SDS011;51453;47.738;7.420;2023-03-14T01:11:11;3.95;;;0.65;;
64938;SDS011;51453;47.738;7.420;2023-03-14T01:13:42;2.75;;;0.57;;
64938;SDS011;51453;47.738;7.420;2023-03-14T01:16:09;0.88;;;0.55;;
64938;SDS011;51453;47.738;7.420;2023-03-14T01:18:36;4.93;;;0.98;;
64938;SDS011;51453;47.738;7.420;2023-03-14T01:21:09;4.32;;;0.63;;
64938;SDS011;51453;47.738;7.420;2023-03-14T01:23:39;2.22;;;0.60;;
64938;SDS011;51453;47.738;7.420;2023-03-14T01:26:07;2.10;;;0.57;;
64938;SDS011;51453;47.738;7.420;2023-03-14T01:28:35;3.20;;;0.60;;
64938;SDS011;51453;47.738;7.420;2023-03-14T01:31:07;2.38;;;0.60;;
64938;SDS011;51453;47.738;7.420;2023-03-14T01:33:35;3.35;;;0.80;;
64938;SDS011;51453;47.738;7.420;2023-03-14T01:36:01;4.10;;;0.80;;
64938;SDS011;51453;47.738;7.420;2023-03-14T01:38:30;4.32;;;0.80;;
64938;SDS011;51453;47.738;7.420;2023-03-14T01:40:57;3.88;;;0.75;;
64938;SDS011;51453;47.738;7.420;2023-03-14T01:43:23;6.85;;;0.77;;
64938;SDS011;51453;47.738;7.420;2023-03-14T01:46:16;4.47;;;0.60;;
64938;SDS011;51453;47.738;7.420;2023-03-14T01:49:02;2.78;;;0.63;;
64938;SDS011;51453;47.738;7.420;2023-03-14T01:56:41;4.90;;;0.70;;
64938;SDS011;51453;47.738;7.420;2023-03-14T01:59:10;2.13;;;0.45;;
64938;SDS011;51453;47.738;7.420;2023-03-14T02:01:37;3.05;;;0.50;;
64938;SDS011;51453;47.738;7.420;2023-03-14T02:04:07;4.28;;;0.50;;
64938;SDS011;51453;47.738;7.420;2023-03-14T02:06:35;3.00;;;0.30;;
64938;SDS011;51453;47.738;7.420;2023-03-14T02:09:27;1.92;;;0.40;;
64938;SDS011;51453;47.738;7.420;2023-03-14T02:11:54;2.50;;;0.60;;
64938;SDS011;51453;47.738;7.420;2023-03-14T02:14:23;3.13;;;0.70;;
64938;SDS011;51453;47.738;7.420;2023-03-14T02:16:54;3.13;;;0.60;;
64938;SDS011;51453;47.738;7.420;2023-03-14T02:19:21;2.08;;;0.50;;
64938;SDS011;51453;47.738;7.420;2023-03-14T02:22:14;2.58;;;0.75;;
64938;SDS011;51453;47.738;7.420;2023-03-14T02:27:50;3.65;;;0.50;;
64938;SDS011;51453;47.738;7.420;2023-03-14T02:30:19;1.83;;;0.47;;
64938;SDS011;51453;47.738;7.420;2023-03-14T02:32:48;3.47;;;0.55;;
64938;SDS011;51453;47.738;7.420;2023-03-14T02:35:18;4.43;;;0.60;;
64938;SDS011;51453;47.738;7.420;2023-03-14T02:37:49;3.00;;;0.70;;
64938;SDS011;51453;47.738;7.420;2023-03-14T02:40:19;2.92;;;0.60;;
64938;SDS011;51453;47.738;7.420;2023-03-14T02:42:45;7.72;;;0.60;;
64938;SDS011;51453;47.738;7.420;2023-03-14T02:47:37;4.22;;;0.90;;
64938;SDS011;51453;47.738;7.420;2023-03-14T02:50:09;5.55;;;0.93;;
64938;SDS011;51453;47.738;7.420;2023-03-14T02:52:40;3.08;;;0.60;;
64938;SDS011;51453;47.738;7.420;2023-03-14T02:55:06;8.02;;;0.50;;
64938;SDS011;51453;47.738;7.420;2023-03-14T02:57:32;6.13;;;0.80;;
64938;SDS011;51453;47.738;7.420;2023-03-14T02:59:58;3.42;;;0.77;;
64938;SDS011;51453;47.738;7.420;2023-03-14T03:02:25;3.13;;;0.60;;
64938;SDS011;51453;47.738;7.420;2023-03-14T03:04:51;4.00;;;1.00;;
64938;SDS011;51453;47.738;7.420;2023-03-14T03:07:16;4.35;;;0.85;;
64938;SDS011;51453;47.738;7.420;2023-03-14T03:09:42;2.95;;;0.90;;
64938;SDS011;51453;47.738;7.420;2023-03-14T03:12:07;1.67;;;0.45;;
64938;SDS011;51453;47.738;7.420;2023-03-14T03:14:33;2.50;;;0.65;;
64938;SDS011;51453;47.738;7.420;2023-03-14T03:16:59;2.78;;;0.50;;
64938;SDS011;51453;47.738;7.420;2023-03-14T03:19:24;3.67;;;0.65;;
64938;SDS011;51453;47.738;7.420;2023-03-14T03:21:50;3.88;;;0.95;;
64938;SDS011;51453;47.738;7.420;2023-03-14T03:24:16;2.58;;;0.57;;
64938;SDS011;51453;47.738;7.420;2023-03-14T03:26:42;2.97;;;0.80;;
64938;SDS011;51453;47.738;7.420;2023-03-14T03:29:07;4.80;;;0.40;;
64938;SDS011;51453;47.738;7.420;2023-03-14T03:31:33;2.00;;;0.50;;
64938;SDS011;51453;47.738;7.420;2023-03-14T03:34:01;3.30;;;0.98;;
64938;SDS011;51453;47.738;7.420;2023-03-14T03:36:26;2.70;;;0.50;;
64938;SDS011;51453;47.738;7.420;2023-03-14T03:38:52;1.38;;;0.35;;
64938;SDS011;51453;47.738;7.420;2023-03-14T03:41:18;2.75;;;0.73;;
64938;SDS011;51453;47.738;7.420;2023-03-14T03:43:43;3.13;;;0.40;;
64938;SDS011;51453;47.738;7.420;2023-03-14T03:46:09;2.50;;;0.32;;
64938;SDS011;51453;47.738;7.420;2023-03-14T03:48:35;2.63;;;0.60;;
64938;SDS011;51453;47.738;7.420;2023-03-14T03:51:01;4.80;;;0.52;;
64938;SDS011;51453;47.738;7.420;2023-03-14T03:53:27;2.20;;;0.47;;
64938;SDS011;51453;47.738;7.420;2023-03-14T03:55:53;2.75;;;0.40;;
64938;SDS011;51453;47.738;7.420;2023-03-14T03:58:18;2.28;;;0.55;;
64938;SDS011;51453;47.738;7.420;2023-03-14T04:00:44;3.63;;;0.43;;
64938;SDS011;51453;47.738;7.420;2023-03-14T04:03:10;1.20;;;0.30;;
64938;SDS011;51453;47.738;7.420;2023-03-14T04:05:36;1.15;;;0.30;;
64938;SDS011;51453;47.738;7.420;2023-03-14T04:08:02;2.95;;;0.45;;
64938;SDS011;51453;47.738;7.420;2023-03-14T04:10:29;1.73;;;0.40;;
64938;SDS011;51453;47.738;7.420;2023-03-14T04:12:55;1.52;;;0.35;;
64938;SDS011;51453;47.738;7.420;2023-03-14T04:15:20;2.05;;;0.30;;
64938;SDS011;51453;47.738;7.420;2023-03-14T04:17:46;1.50;;;0.20;;
64938;SDS011;51453;47.738;7.420;2023-03-14T04:20:12;0.90;;;0.20;;
64938;SDS011;51453;47.738;7.420;2023-03-14T04:22:38;1.33;;;0.28;;
64938;SDS011;51453;47.738;7.420;2023-03-14T04:25:04;1.60;;;0.30;;
64938;SDS011;51453;47.738;7.420;2023-03-14T04:27:30;1.77;;;0.20;;
64938;SDS011;51453;47.738;7.420;2023-03-14T04:29:56;2.10;;;0.40;;
64938;SDS011;51453;47.738;7.420;2023-03-14T04:32:22;1.98;;;0.90;;
64938;SDS011;51453;47.738;7.420;2023-03-14T04:34:47;1.55;;;0.20;;
64938;SDS011;51453;47.738;7.420;2023-03-14T04:37:13;2.25;;;0.30;;
64938;SDS011;51453;47.738;7.420;2023-03-14T04:39:39;2.10;;;0.22;;
64938;SDS011;51453;47.738;7.420;2023-03-14T04:42:05;2.80;;;0.40;;
64938;SDS011;51453;47.738;7.420;2023-03-14T04:44:30;1.58;;;0.38;;
64938;SDS011;51453;47.738;7.420;2023-03-14T04:46:56;0.85;;;0.28;;
64938;SDS011;51453;47.738;7.420;2023-03-14T04:49:22;0.40;;;0.15;;
64938;SDS011;51453;47.738;7.420;2023-03-14T04:51:48;0.90;;;0.57;;
64938;SDS011;51453;47.738;7.420;2023-03-14T04:54:16;1.90;;;0.17;;
64938;SDS011;51453;47.738;7.420;2023-03-14T04:56:42;0.77;;;0.30;;
64938;SDS011;51453;47.738;7.420;2023-03-14T04:59:08;2.10;;;0.40;;
64938;SDS011;51453;47.738;7.420;2023-03-14T05:01:34;1.42;;;0.30;;
64938;SDS011;51453;47.738;7.420;2023-03-14T05:04:00;2.58;;;0.30;;
64938;SDS011;51453;47.738;7.420;2023-03-14T05:06:25;1.15;;;0.50;;
64938;SDS011;51453;47.738;7.420;2023-03-14T05:08:51;1.08;;;0.30;;
64938;SDS011;51453;47.738;7.420;2023-03-14T05:11:17;1.15;;;0.25;;
64938;SDS011;51453;47.738;7.420;2023-03-14T05:13:43;1.33;;;0.30;;
64938;SDS011;51453;47.738;7.420;2023-03-14T05:16:09;2.30;;;0.47;;
64938;SDS011;51453;47.738;7.420;2023-03-14T05:18:36;1.90;;;0.75;;
64938;SDS011;51453;47.738;7.420;2023-03-14T05:21:02;1.67;;;0.50;;
64938;SDS011;51453;47.738;7.420;2023-03-14T05:23:29;1.05;;;0.30;;
64938;SDS011;51453;47.738;7.420;2023-03-14T05:25:54;1.48;;;0.45;;
64938;SDS011;51453;47.738;7.420;2023-03-14T05:28:20;2.45;;;0.70;;
64938;SDS011;51453;47.738;7.420;2023-03-14T05:30:46;0.40;;;0.40;;
64938;SDS011;51453;47.738;7.420;2023-03-14T05:33:12;2.38;;;0.60;;
64938;SDS011;51453;47.738;7.420;2023-03-14T05:35:37;0.77;;;0.30;;
64938;SDS011;51453;47.738;7.420;2023-03-14T05:38:03;3.47;;;0.43;;
64938;SDS011;51453;47.738;7.420;2023-03-14T05:40:28;1.30;;;0.55;;
64938;SDS011;51453;47.738;7.420;2023-03-14T05:42:54;1.05;;;0.40;;
64938;SDS011;51453;47.738;7.420;2023-03-14T05:45:20;0.95;;;0.50;;
64938;SDS011;51453;47.738;7.420;2023-03-14T05:47:45;1.27;;;0.57;;
64938;SDS011;51453;47.738;7.420;2023-03-14T05:50:11;0.98;;;0.30;;
64938;SDS011;51453;47.738;7.420;2023-03-14T05:52:37;0.52;;;0.50;;
64938;SDS011;51453;47.738;7.420;2023-03-14T05:55:03;1.60;;;0.70;;
64938;SDS011;51453;47.738;7.420;2023-03-14T05:57:29;1.40;;;0.40;;
64938;SDS011;51453;47.738;7.420;2023-03-14T05:59:55;2.25;;;0.47;;
64938;SDS011;51453;47.738;7.420;2023-03-14T06:02:21;0.63;;;0.50;;
64938;SDS011;51453;47.738;7.420;2023-03-14T06:04:46;1.42;;;0.40;;
64938;SDS011;51453;47.738;7.420;2023-03-14T06:07:12;0.93;;;0.40;;
64938;SDS011;51453;47.738;7.420;2023-03-14T06:09:38;0.52;;;0.20;;
64938;SDS011;51453;47.738;7.420;2023-03-14T06:12:04;1.75;;;0.30;;
64938;SDS011;51453;47.738;7.420;2023-03-14T06:14:30;1.55;;;0.60;;
64938;SDS011;51453;47.738;7.420;2023-03-14T06:16:56;0.85;;;0.40;;
64938;SDS011;51453;47.738;7.420;2023-03-14T06:19:24;0.63;;;0.40;;
64938;SDS011;51453;47.738;7.420;2023-03-14T06:21:50;1.00;;;0.30;;
64938;SDS011;51453;47.738;7.420;2023-03-14T06:24:15;0.90;;;0.40;;
64938;SDS011;51453;47.738;7.420;2023-03-14T06:26:41;1.45;;;0.38;;
64938;SDS011;51453;47.738;7.420;2023-03-14T06:29:07;1.48;;;0.55;;
64938;SDS011;51453;47.738;7.420;2023-03-14T06:31:32;1.25;;;0.43;;
64938;SDS011;51453;47.738;7.420;2023-03-14T06:33:58;1.65;;;0.40;;
64938;SDS011;51453;47.738;7.420;2023-03-14T06:36:24;0.93;;;0.50;;
64938;SDS011;51453;47.738;7.420;2023-03-14T06:38:50;2.17;;;0.40;;
64938;SDS011;51453;47.738;7.420;2023-03-14T06:41:16;2.50;;;0.60;;
64938;SDS011;51453;47.738;7.420;2023-03-14T06:43:41;1.38;;;0.40;;
64938;SDS011;51453;47.738;7.420;2023-03-14T06:46:07;0.60;;;0.30;;
64938;SDS011;51453;47.738;7.420;2023-03-14T06:48:33;1.50;;;0.40;;
64938;SDS011;51453;47.738;7.420;2023-03-14T06:50:59;5.10;;;0.70;;
64938;SDS011;51453;47.738;7.420;2023-03-14T06:53:24;1.25;;;0.40;;
64938;SDS011;51453;47.738;7.420;2023-03-14T06:55:50;4.63;;;0.70;;
64938;SDS011;51453;47.738;7.420;2023-03-14T06:58:15;1.05;;;0.40;;
64938;SDS011;51453;47.738;7.420;2023-03-14T07:00:41;10.60;;;0.80;;
64938;SDS011;51453;47.738;7.420;2023-03-14T07:03:07;1.75;;;0.63;;
64938;SDS011;51453;47.738;7.420;2023-03-14T07:05:32;1.48;;;0.55;;
64938;SDS011;51453;47.738;7.420;2023-03-14T07:07:58;1.45;;;0.80;;
64938;SDS011;51453;47.738;7.420;2023-03-14T07:10:24;2.67;;;0.60;;
64938;SDS011;51453;47.738;7.420;2023-03-14T07:12:50;1.40;;;0.73;;
64938;SDS011;51453;47.738;7.420;2023-03-14T07:15:17;3.60;;;0.77;;
64938;SDS011;51453;47.738;7.420;2023-03-14T07:17:43;1.80;;;0.80;;
64938;SDS011;51453;47.738;7.420;2023-03-14T07:20:09;4.20;;;0.93;;
64938;SDS011;51453;47.738;7.420;2023-03-14T07:22:35;4.95;;;1.08;;
64938;SDS011;51453;47.738;7.420;2023-03-14T07:25:00;2.38;;;0.90;;
64938;SDS011;51453;47.738;7.420;2023-03-14T07:27:26;2.85;;;0.70;;
64938;SDS011;51453;47.738;7.420;2023-03-14T07:29:52;2.33;;;0.70;;
64938;SDS011;51453;47.738;7.420;2023-03-14T07:32:17;1.17;;;0.50;;
64938;SDS011;51453;47.738;7.420;2023-03-14T07:34:43;1.10;;;0.60;;
64938;SDS011;51453;47.738;7.420;2023-03-14T07:37:09;1.50;;;0.75;;
64938;SDS011;51453;47.738;7.420;2023-03-14T07:39:35;1.08;;;0.50;;
64938;SDS011;51453;47.738;7.420;2023-03-14T07:42:00;1.30;;;0.32;;
64938;SDS011;51453;47.738;7.420;2023-03-14T07:44:26;2.80;;;0.50;;
64938;SDS011;51453;47.738;7.420;2023-03-14T07:46:52;2.63;;;0.57;;
64938;SDS011;51453;47.738;7.420;2023-03-14T07:49:18;1.08;;;0.40;;
64938;SDS011;51453;47.738;7.420;2023-03-14T07:51:43;1.92;;;0.70;;
64938;SDS011;51453;47.738;7.420;2023-03-14T07:54:12;1.98;;;0.77;;
64938;SDS011;51453;47.738;7.420;2023-03-14T07:56:37;2.15;;;0.45;;
64938;SDS011;51453;47.738;7.420;2023-03-14T07:59:03;1.38;;;0.57;;
64938;SDS011;51453;47.738;7.420;2023-03-14T08:01:29;1.65;;;0.80;;
64938;SDS011;51453;47.738;7.420;2023-03-14T08:03:54;1.48;;;0.52;;
64938;SDS011;51453;47.738;7.420;2023-03-14T08:06:20;1.85;;;0.60;;
64938;SDS011;51453;47.738;7.420;2023-03-14T08:08:46;0.65;;;0.30;;
64938;SDS011;51453;47.738;7.420;2023-03-14T08:11:12;0.90;;;0.30;;
64938;SDS011;51453;47.738;7.420;2023-03-14T08:13:37;0.30;;;0.20;;
64938;SDS011;51453;47.738;7.420;2023-03-14T08:16:04;0.35;;;0.20;;
64938;SDS011;51453;47.738;7.420;2023-03-14T08:18:30;0.50;;;0.30;;
64938;SDS011;51453;47.738;7.420;2023-03-14T08:20:56;0.28;;;0.10;;
64938;SDS011;51453;47.738;7.420;2023-03-14T08:23:21;0.15;;;0.10;;
64938;SDS011;51453;47.738;7.420;2023-03-14T08:25:51;1.17;;;0.10;;
64938;SDS011;51453;47.738;7.420;2023-03-14T08:28:17;1.52;;;0.20;;
64938;SDS011;51453;47.738;7.420;2023-03-14T08:30:43;0.28;;;0.10;;
64938;SDS011;51453;47.738;7.420;2023-03-14T08:33:09;0.68;;;0.20;;
64938;SDS011;51453;47.738;7.420;2023-03-14T08:35:36;0.25;;;0.10;;
64938;SDS011;51453;47.738;7.420;2023-03-14T08:38:02;0.25;;;0.20;;
64938;SDS011;51453;47.738;7.420;2023-03-14T08:40:28;0.30;;;0.20;;
64938;SDS011;51453;47.738;7.420;2023-03-14T08:42:54;1.65;;;0.30;;
64938;SDS011;51453;47.738;7.420;2023-03-14T08:45:20;0.20;;;0.10;;
64938;SDS011;51453;47.738;7.420;2023-03-14T08:47:46;2.05;;;0.20;;
64938;SDS011;51453;47.738;7.420;2023-03-14T08:50:12;0.10;;;0.10;;
64938;SDS011;51453;47.738;7.420;2023-03-14T08:52:38;1.33;;;0.10;;
64938;SDS011;51453;47.738;7.420;2023-03-14T08:55:05;0.10;;;0.10;;
64938;SDS011;51453;47.738;7.420;2023-03-14T08:57:34;0.20;;;0.10;;
64938;SDS011;51453;47.738;7.420;2023-03-14T09:00:01;0.47;;;0.00;;
64938;SDS011;51453;47.738;7.420;2023-03-14T09:02:30;0.20;;;0.20;;
64938;SDS011;51453;47.738;7.420;2023-03-14T09:04:55;0.63;;;0.20;;
64938;SDS011;51453;47.738;7.420;2023-03-14T09:07:21;0.10;;;0.10;;
64938;SDS011;51453;47.738;7.420;2023-03-14T09:09:47;0.20;;;0.15;;
64938;SDS011;51453;47.738;7.420;2023-03-14T09:12:13;0.15;;;0.15;;
64938;SDS011;51453;47.738;7.420;2023-03-14T09:14:38;1.27;;;0.20;;
64938;SDS011;51453;47.738;7.420;2023-03-14T09:17:05;0.35;;;0.10;;
64938;SDS011;51453;47.738;7.420;2023-03-14T09:19:30;0.20;;;0.20;;
64938;SDS011;51453;47.738;7.420;2023-03-14T09:21:56;0.68;;;0.30;;
64938;SDS011;51453;47.738;7.420;2023-03-14T09:24:22;0.17;;;0.17;;
64938;SDS011;51453;47.738;7.420;2023-03-14T09:26:47;0.10;;;0.10;;
64938;SDS011;51453;47.738;7.420;2023-03-14T09:29:13;0.38;;;0.13;;
64938;SDS011;51453;47.738;7.420;2023-03-14T09:31:39;0.00;;;0.00;;
64938;SDS011;51453;47.738;7.420;2023-03-14T09:34:04;1.45;;;0.15;;
64938;SDS011;51453;47.738;7.420;2023-03-14T09:36:31;1.08;;;0.10;;
64938;SDS011;51453;47.738;7.420;2023-03-14T09:38:56;0.10;;;0.10;;
64938;SDS011;51453;47.738;7.420;2023-03-14T09:41:29;0.10;;;0.10;;
64938;SDS011;51453;47.738;7.420;2023-03-14T09:44:00;0.10;;;0.10;;
64938;SDS011;51453;47.738;7.420;2023-03-14T09:46:29;0.10;;;0.10;;
64938;SDS011;51453;47.738;7.420;2023-03-14T09:48:58;0.25;;;0.10;;
64938;SDS011;51453;47.738;7.420;2023-03-14T09:51:24;0.10;;;0.00;;
64938;SDS011;51453;47.738;7.420;2023-03-14T09:53:51;0.20;;;0.10;;
64938;SDS011;51453;47.738;7.420;2023-03-14T09:56:18;0.20;;;0.00;;
64938;SDS011;51453;47.738;7.420;2023-03-14T09:58:49;0.10;;;0.10;;
64938;SDS011;51453;47.738;7.420;2023-03-14T10:01:28;0.10;;;0.10;;
64938;SDS011;51453;47.738;7.420;2023-03-14T10:03:56;0.10;;;0.10;;
64938;SDS011;51453;47.738;7.420;2023-03-14T10:06:26;0.20;;;0.10;;
64938;SDS011;51453;47.738;7.420;2023-03-14T10:08:53;4.10;;;0.20;;
64938;SDS011;51453;47.738;7.420;2023-03-14T10:11:19;0.20;;;0.20;;
64938;SDS011;51453;47.738;7.420;2023-03-14T10:14:05;1.10;;;0.10;;
64938;SDS011;51453;47.738;7.420;2023-03-14T10:16:44;0.30;;;0.20;;
64938;SDS011;51453;47.738;7.420;2023-03-14T10:19:12;0.30;;;0.20;;
64938;SDS011;51453;47.738;7.420;2023-03-14T10:21:42;1.33;;;0.10;;
64938;SDS011;51453;47.738;7.420;2023-03-14T10:26:52;0.17;;;0.17;;
64938;SDS011;51453;47.738;7.420;2023-03-14T10:29:29;3.83;;;0.20;;
64938;SDS011;51453;47.738;7.420;2023-03-14T10:34:34;1.08;;;0.32;;
64938;SDS011;51453;47.738;7.420;2023-03-14T10:37:14;0.20;;;0.10;;
64938;SDS011;51453;47.738;7.420;2023-03-14T10:39:47;0.52;;;0.10;;
64938;SDS011;51453;47.738;7.420;2023-03-14T10:42:20;0.50;;;0.20;;
64938;SDS011;51453;47.738;7.420;2023-03-14T10:44:55;1.38;;;0.20;;
64938;SDS011;51453;47.738;7.420;2023-03-14T10:47:24;0.32;;;0.20;;
64938;SDS011;51453;47.738;7.420;2023-03-14T10:49:53;1.42;;;0.50;;
64938;SDS011;51453;47.738;7.420;2023-03-14T10:54:58;1.45;;;0.20;;
64938;SDS011;51453;47.738;7.420;2023-03-14T10:57:26;1.55;;;0.30;;
64938;SDS011;51453;47.738;7.420;2023-03-14T10:59:53;1.88;;;0.20;;
64938;SDS011;51453;47.738;7.420;2023-03-14T11:02:31;1.83;;;0.30;;
64938;SDS011;51453;47.738;7.420;2023-03-14T11:07:49;0.70;;;0.30;;
64938;SDS011;51453;47.738;7.420;2023-03-14T11:26:47;1.13;;;0.40;;
64938;SDS011;51453;47.738;7.420;2023-03-14T11:33:00;3.22;;;0.68;;
64938;SDS011;51453;47.738;7.420;2023-03-14T11:35:13;1.63;;;0.50;;
64938;SDS011;51453;47.738;7.420;2023-03-14T11:37:51;1.88;;;0.65;;
64938;SDS011;51453;47.738;7.420;2023-03-14T11:40:38;1.02;;;0.40;;
64938;SDS011;51453;47.738;7.420;2023-03-14T11:45:37;2.53;;;0.50;;
64938;SDS011;51453;47.738;7.420;2023-03-14T11:48:16;1.05;;;0.50;;
64938;SDS011;51453;47.738;7.420;2023-03-14T11:50:53;2.15;;;0.80;;
64938;SDS011;51453;47.738;7.420;2023-03-14T11:53:25;3.72;;;0.60;;
64938;SDS011;51453;47.738;7.420;2023-03-14T11:56:16;0.47;;;0.40;;
64938;SDS011;51453;47.738;7.420;2023-03-14T11:58:53;2.78;;;0.70;;
64938;SDS011;51453;47.738;7.420;2023-03-14T12:01:22;0.90;;;0.30;;
64938;SDS011;51453;47.738;7.420;2023-03-14T12:07:12;2.15;;;0.25;;
64938;SDS011;51453;47.738;7.420;2023-03-14T12:09:45;0.55;;;0.20;;
64938;SDS011;51453;47.738;7.420;2023-03-14T12:12:14;1.75;;;0.40;;
64938;SDS011;51453;47.738;7.420;2023-03-14T12:14:45;1.67;;;0.30;;
64938;SDS011;51453;47.738;7.420;2023-03-14T12:17:20;1.42;;;0.63;;
64938;SDS011;51453;47.738;7.420;2023-03-14T12:19:46;6.88;;;0.60;;
64938;SDS011;51453;47.738;7.420;2023-03-14T12:24:44;1.95;;;0.30;;
64938;SDS011;51453;47.738;7.420;2023-03-14T12:27:13;3.92;;;0.50;;
64938;SDS011;51453;47.738;7.420;2023-03-14T12:30:05;2.40;;;0.50;;
64938;SDS011;51453;47.738;7.420;2023-03-14T12:35:39;2.15;;;0.50;;
64938;SDS011;51453;47.738;7.420;2023-03-14T12:38:12;1.85;;;0.45;;
64938;SDS011;51453;47.738;7.420;2023-03-14T12:41:15;2.33;;;0.80;;
64938;SDS011;51453;47.738;7.420;2023-03-14T12:43:47;2.55;;;0.43;;
64938;SDS011;51453;47.738;7.420;2023-03-14T12:51:19;1.73;;;0.60;;
64938;SDS011;51453;47.738;7.420;2023-03-14T12:56:27;2.75;;;0.75;;
64938;SDS011;51453;47.738;7.420;2023-03-14T12:59:09;3.83;;;0.63;;
64938;SDS011;51453;47.738;7.420;2023-03-14T13:01:54;4.40;;;0.80;;
64938;SDS011;51453;47.738;7.420;2023-03-14T13:04:33;5.30;;;0.50;;
64938;SDS011;51453;47.738;7.420;2023-03-14T13:07:02;2.80;;;0.82;;
64938;SDS011;51453;47.738;7.420;2023-03-14T13:11:54;3.38;;;0.80;;
64938;SDS011;51453;47.738;7.420;2023-03-14T13:14:25;4.45;;;0.80;;
64938;SDS011;51453;47.738;7.420;2023-03-14T13:16:53;2.83;;;0.80;;
64938;SDS011;51453;47.738;7.420;2023-03-14T13:19:23;3.25;;;0.70;;
64938;SDS011;51453;47.738;7.420;2023-03-14T13:21:51;3.17;;;1.10;;
64938;SDS011;51453;47.738;7.420;2023-03-14T13:24:27;2.40;;;0.80;;
64938;SDS011;51453;47.738;7.420;2023-03-14T13:26:53;3.63;;;0.82;;
64938;SDS011;51453;47.738;7.420;2023-03-14T13:29:21;4.90;;;0.60;;
64938;SDS011;51453;47.738;7.420;2023-03-14T13:31:50;3.92;;;0.95;;
64938;SDS011;51453;47.738;7.420;2023-03-14T13:34:17;4.45;;;0.85;;
64938;SDS011;51453;47.738;7.420;2023-03-14T13:36:44;1.58;;;0.60;;
64938;SDS011;51453;47.738;7.420;2023-03-14T13:39:10;4.00;;;0.73;;
64938;SDS011;51453;47.738;7.420;2023-03-14T13:41:39;2.63;;;0.75;;
64938;SDS011;51453;47.738;7.420;2023-03-14T13:44:07;4.22;;;1.00;;
64938;SDS011;51453;47.738;7.420;2023-03-14T13:46:37;3.90;;;0.80;;
64938;SDS011;51453;47.738;7.420;2023-03-14T13:49:09;3.28;;;0.65;;
64938;SDS011;51453;47.738;7.420;2023-03-14T13:51:38;4.93;;;0.88;;
64938;SDS011;51453;47.738;7.420;2023-03-14T13:54:12;2.90;;;0.70;;
64938;SDS011;51453;47.738;7.420;2023-03-14T13:56:42;3.33;;;0.60;;
64938;SDS011;51453;47.738;7.420;2023-03-14T13:59:21;4.25;;;0.77;;
64938;SDS011;51453;47.738;7.420;2023-03-14T14:01:52;1.60;;;0.70;;
64938;SDS011;51453;47.738;7.420;2023-03-14T14:04:20;2.55;;;0.68;;
64938;SDS011;51453;47.738;7.420;2023-03-14T14:06:56;5.88;;;0.88;;
64938;SDS011;51453;47.738;7.420;2023-03-14T14:09:45;3.15;;;0.70;;
64938;SDS011;51453;47.738;7.420;2023-03-14T14:14:56;4.38;;;0.98;;
64938;SDS011;51453;47.738;7.420;2023-03-14T14:17:39;4.45;;;0.85;;
64938;SDS011;51453;47.738;7.420;2023-03-14T14:20:14;3.03;;;0.75;;
64938;SDS011;51453;47.738;7.420;2023-03-14T14:22:57;2.95;;;0.70;;
64938;SDS011;51453;47.738;7.420;2023-03-14T14:25:23;3.00;;;0.70;;
64938;SDS011;51453;47.738;7.420;2023-03-14T14:27:49;2.28;;;0.73;;
64938;SDS011;51453;47.738;7.420;2023-03-14T14:32:48;3.45;;;0.70;;
64938;SDS011;51453;47.738;7.420;2023-03-14T14:35:25;1.65;;;0.60;;
64938;SDS011;51453;47.738;7.420;2023-03-14T14:37:58;2.25;;;0.80;;
64938;SDS011;51453;47.738;7.420;2023-03-14T14:40:26;4.55;;;1.15;;
64938;SDS011;51453;47.738;7.420;2023-03-14T14:42:53;4.30;;;0.50;;
64938;SDS011;51453;47.738;7.420;2023-03-14T14:45:20;4.78;;;0.60;;
64938;SDS011;51453;47.738;7.420;2023-03-14T14:48:04;2.08;;;0.60;;
64938;SDS011;51453;47.738;7.420;2023-03-14T14:50:36;5.15;;;0.75;;
64938;SDS011;51453;47.738;7.420;2023-03-14T14:53:19;2.33;;;0.60;;
64938;SDS011;51453;47.738;7.420;2023-03-14T14:55:49;2.67;;;0.68;;
64938;SDS011;51453;47.738;7.420;2023-03-14T15:03:36;2.53;;;0.73;;
64938;SDS011;51453;47.738;7.420;2023-03-14T15:06:02;4.53;;;1.10;;
64938;SDS011;51453;47.738;7.420;2023-03-14T15:08:28;2.28;;;0.80;;
64938;SDS011;51453;47.738;7.420;2023-03-14T15:10:55;4.60;;;1.13;;
64938;SDS011;51453;47.738;7.420;2023-03-14T15:13:22;2.33;;;0.90;;
64938;SDS011;51453;47.738;7.420;2023-03-14T15:15:49;4.57;;;1.02;;
64938;SDS011;51453;47.738;7.420;2023-03-14T15:18:20;8.27;;;0.82;;
64938;SDS011;51453;47.738;7.420;2023-03-14T15:20:48;3.03;;;0.60;;
64938;SDS011;51453;47.738;7.420;2023-03-14T15:23:14;2.08;;;0.70;;
64938;SDS011;51453;47.738;7.420;2023-03-14T15:25:42;3.25;;;0.57;;
64938;SDS011;51453;47.738;7.420;2023-03-14T15:28:23;4.15;;;0.90;;
64938;SDS011;51453;47.738;7.420;2023-03-14T15:30:51;5.13;;;0.65;;
64938;SDS011;51453;47.738;7.420;2023-03-14T15:33:18;2.47;;;0.55;;
64938;SDS011;51453;47.738;7.420;2023-03-14T15:35:46;4.40;;;0.80;;
64938;SDS011;51453;47.738;7.420;2023-03-14T15:38:16;4.45;;;1.00;;
64938;SDS011;51453;47.738;7.420;2023-03-14T15:40:50;2.92;;;0.73;;
64938;SDS011;51453;47.738;7.420;2023-03-14T15:43:16;3.28;;;0.52;;
64938;SDS011;51453;47.738;7.420;2023-03-14T15:45:43;3.70;;;0.93;;
64938;SDS011;51453;47.738;7.420;2023-03-14T15:48:15;2.13;;;0.60;;
64938;SDS011;51453;47.738;7.420;2023-03-14T15:50:46;2.35;;;0.57;;
64938;SDS011;51453;47.738;7.420;2023-03-14T15:53:11;4.78;;;0.70;;
64938;SDS011;51453;47.738;7.420;2023-03-14T15:55:37;5.82;;;0.90;;
64938;SDS011;51453;47.738;7.420;2023-03-14T15:58:03;1.30;;;0.70;;
64938;SDS011;51453;47.738;7.420;2023-03-14T16:00:29;2.42;;;0.52;;
64938;SDS011;51453;47.738;7.420;2023-03-14T16:02:55;2.42;;;0.30;;
64938;SDS011;51453;47.738;7.420;2023-03-14T16:05:21;2.50;;;0.50;;
64938;SDS011;51453;47.738;7.420;2023-03-14T16:07:47;1.13;;;0.40;;